createdAt,value
2023-06-01T00:00:58.379Z,170.62
2023-06-01T00:01:58.389Z,170.08
2023-06-01T00:02:58.481Z,169.95
2023-06-01T00:03:58.553Z,171.65
2023-06-01T00:04:59.463Z,170.11
2023-06-01T00:05:59.488Z,170.98
2023-06-01T00:06:59.489Z,170.06
2023-06-01T00:07:59.506Z,166.83
2023-06-01T00:08:59.520Z,171.29
2023-06-01T00:09:59.550Z,168.82
2023-06-01T00:10:59.761Z,171.00
2023-06-01T00:11:58.585Z,171.21
2023-06-01T00:12:59.638Z,168.98
2023-06-01T00:13:59.621Z,168.02
2023-06-01T00:14:58.654Z,169.70
2023-06-01T00:15:58.708Z,169.23
2023-06-01T00:16:59.684Z,170.47
2023-06-01T00:17:58.827Z,170.67
2023-06-01T00:18:59.715Z,169.96
2023-06-01T00:19:58.729Z,167.55
2023-06-01T00:20:59.958Z,170.24
2023-06-01T00:21:58.881Z,166.98
2023-06-01T00:22:58.822Z,169.96
2023-06-01T00:24:00.188Z,171.47
2023-06-01T00:24:58.856Z,172.92
2023-06-01T00:25:59.803Z,173.33
2023-06-01T00:26:59.815Z,170.12
2023-06-01T00:27:59.836Z,170.09
2023-06-01T00:28:59.804Z,172.19
2023-06-01T00:29:59.774Z,171.55
2023-06-01T00:31:00.038Z,170.22
2023-06-01T00:31:59.820Z,173.31
2023-06-01T00:32:59.812Z,172.54
2023-06-01T00:33:59.748Z,172.68
2023-06-01T00:34:58.750Z,169.96
2023-06-01T00:35:58.733Z,169.02
2023-06-01T00:36:59.757Z,171.08
2023-06-01T00:37:58.750Z,168.38
2023-06-01T00:38:59.728Z,168.16
2023-06-01T00:39:59.734Z,172.06
2023-06-01T00:40:58.789Z,166.81
2023-06-01T00:41:59.032Z,169.93
2023-06-01T00:42:59.686Z,166.66
2023-06-01T00:43:58.687Z,170.08
2023-06-01T00:44:59.672Z,169.56
2023-06-01T00:45:58.688Z,168.98
2023-06-01T00:46:58.679Z,168.00
2023-06-01T00:47:58.682Z,171.41
2023-06-01T00:48:58.645Z,168.50
2023-06-01T00:49:59.632Z,169.43
2023-06-01T00:50:59.748Z,168.19
2023-06-01T00:51:59.641Z,168.42
2023-06-01T00:52:58.625Z,170.33
2023-06-01T00:53:59.602Z,169.16
2023-06-01T00:54:59.601Z,169.68
2023-06-01T00:55:59.583Z,167.13
2023-06-01T00:56:58.591Z,170.75
2023-06-01T00:57:58.614Z,170.47
2023-06-01T00:58:58.577Z,168.90
2023-06-01T00:59:58.562Z,168.09
2023-06-01T01:00:58.640Z,168.08
2023-06-01T01:01:59.548Z,167.64
2023-06-01T01:02:59.623Z,166.38
2023-06-01T01:03:59.612Z,168.62
2023-06-01T01:04:58.699Z,167.19
2023-06-01T01:05:59.667Z,166.99
2023-06-01T01:06:59.691Z,166.44
2023-06-01T01:07:58.748Z,168.60
2023-06-01T01:08:59.773Z,163.60
2023-06-01T01:09:59.780Z,166.74
2023-06-01T01:11:00.048Z,165.82
2023-06-01T01:11:59.856Z,166.51
2023-06-01T01:12:59.912Z,167.80
2023-06-01T01:13:58.932Z,168.38
2023-06-01T01:14:58.938Z,168.24
2023-06-01T01:15:58.976Z,166.27
2023-06-01T01:16:59.057Z,167.07
2023-06-01T01:18:00.121Z,168.10
2023-06-01T01:19:00.082Z,169.65
2023-06-01T01:19:59.113Z,167.21
2023-06-01T01:21:00.304Z,167.07
2023-06-01T01:22:00.289Z,166.58
2023-06-01T01:23:00.253Z,168.63
2023-06-01T01:23:59.226Z,168.92
2023-06-01T01:24:59.241Z,166.50
2023-06-01T01:25:59.282Z,165.98
2023-06-01T01:27:00.317Z,166.64
2023-06-01T01:27:59.346Z,167.42
2023-06-01T01:29:00.383Z,164.65
2023-06-01T01:29:59.425Z,164.29
2023-06-01T01:31:00.809Z,164.54
2023-06-01T01:32:00.466Z,166.66
2023-06-01T01:32:59.559Z,165.71
2023-06-01T01:34:00.557Z,170.76
2023-06-01T01:35:00.576Z,165.52
2023-06-01T01:36:00.606Z,164.21
2023-06-01T01:37:00.633Z,164.70
2023-06-01T01:37:59.693Z,164.20
2023-06-01T01:38:59.688Z,165.61
2023-06-01T01:40:00.740Z,164.76
2023-06-01T01:41:00.073Z,165.38
2023-06-01T01:41:59.816Z,164.51
2023-06-01T01:42:59.848Z,166.68
2023-06-01T01:44:00.858Z,166.46
2023-06-01T01:44:59.940Z,166.13
2023-06-01T01:45:59.967Z,164.41
2023-06-01T01:47:00.037Z,164.47
2023-06-01T01:48:01.013Z,164.62
2023-06-01T01:49:00.027Z,165.47
2023-06-01T01:50:01.056Z,165.58
2023-06-01T01:51:01.390Z,162.97
2023-06-01T01:52:01.138Z,163.54
2023-06-01T01:53:01.183Z,162.19
2023-06-01T01:54:00.190Z,164.19
2023-06-01T01:55:00.217Z,165.26
2023-06-01T01:56:00.289Z,163.40
2023-06-01T01:57:01.279Z,163.65
2023-06-01T01:58:00.332Z,166.40
2023-06-01T01:59:01.368Z,162.12
2023-06-01T02:00:01.390Z,162.90
2023-06-01T02:01:00.664Z,163.83
2023-06-01T02:02:01.559Z,164.38
2023-06-01T02:03:00.590Z,162.65
2023-06-01T02:04:01.559Z,160.60
2023-06-01T02:05:01.561Z,162.66
2023-06-01T02:06:01.635Z,161.74
2023-06-01T02:07:01.618Z,159.20
2023-06-01T02:08:00.672Z,160.67
2023-06-01T02:09:00.721Z,160.00
2023-06-01T02:10:00.714Z,163.72
2023-06-01T02:11:00.942Z,162.43
2023-06-01T02:12:00.777Z,156.40
2023-06-01T02:13:01.828Z,161.56
2023-06-01T02:14:01.864Z,160.31
2023-06-01T02:15:01.896Z,158.88
2023-06-01T02:16:00.930Z,160.41
2023-06-01T02:17:00.948Z,161.96
2023-06-01T02:18:00.975Z,160.10
2023-06-01T02:19:01.017Z,160.32
2023-06-01T02:20:01.056Z,159.57
2023-06-01T02:21:02.295Z,158.31
2023-06-01T02:22:02.231Z,160.89
2023-06-01T02:23:02.161Z,158.16
2023-06-01T02:24:02.203Z,157.96
2023-06-01T02:25:01.212Z,159.43
2023-06-01T02:26:01.265Z,157.56
2023-06-01T02:27:01.341Z,158.73
2023-06-01T02:28:02.345Z,158.06
2023-06-01T02:29:01.405Z,159.69
2023-06-01T02:30:01.440Z,156.96
2023-06-01T02:31:02.613Z,160.99
2023-06-01T02:32:01.584Z,158.30
2023-06-01T02:33:02.569Z,157.87
2023-06-01T02:34:02.614Z,160.09
2023-06-01T02:35:02.601Z,156.54
2023-06-01T02:36:02.619Z,158.38
2023-06-01T02:37:01.670Z,157.66
2023-06-01T02:38:01.710Z,160.21
2023-06-01T02:39:02.812Z,160.27
2023-06-01T02:40:01.788Z,155.70
2023-06-01T02:41:03.158Z,160.22
2023-06-01T02:42:02.888Z,160.95
2023-06-01T02:43:01.914Z,158.94
2023-06-01T02:44:02.970Z,156.05
2023-06-01T02:45:03.042Z,156.33
2023-06-01T02:46:03.083Z,156.92
2023-06-01T02:47:02.077Z,155.39
2023-06-01T02:48:03.146Z,154.88
2023-06-01T02:49:03.195Z,157.50
2023-06-01T02:50:03.244Z,157.42
2023-06-01T02:51:03.567Z,156.80
2023-06-01T02:52:02.303Z,156.86
2023-06-01T02:53:03.336Z,154.29
2023-06-01T02:54:03.370Z,156.77
2023-06-01T02:55:02.427Z,154.56
2023-06-01T02:56:02.451Z,154.58
2023-06-01T02:57:02.481Z,155.83
2023-06-01T02:58:02.535Z,156.51
2023-06-01T02:59:03.603Z,154.24
2023-06-01T03:00:02.613Z,156.62
2023-06-01T03:01:03.950Z,154.82
2023-06-01T03:02:03.718Z,154.04
2023-06-01T03:03:02.835Z,154.71
2023-06-01T03:04:03.900Z,154.96
2023-06-01T03:05:03.858Z,155.06
2023-06-01T03:06:03.895Z,158.26
2023-06-01T03:07:02.948Z,152.65
2023-06-01T03:08:02.953Z,156.07
2023-06-01T03:09:03.043Z,154.21
2023-06-01T03:10:03.060Z,153.59
2023-06-01T03:11:04.102Z,155.49
2023-06-01T03:12:03.120Z,153.58
2023-06-01T03:13:03.164Z,151.42
2023-06-01T03:14:04.211Z,155.54
2023-06-01T03:15:03.296Z,154.32
2023-06-01T03:16:04.310Z,154.85
2023-06-01T03:17:03.287Z,152.59
2023-06-01T03:18:04.354Z,149.76
2023-06-01T03:19:03.448Z,151.81
2023-06-01T03:20:04.427Z,152.19
2023-06-01T03:21:04.587Z,153.10
2023-06-01T03:22:04.574Z,151.14
2023-06-01T03:23:04.527Z,151.80
2023-06-01T03:24:03.565Z,148.93
2023-06-01T03:25:03.577Z,149.71
2023-06-01T03:26:04.618Z,155.53
2023-06-01T03:27:03.694Z,152.55
2023-06-01T03:28:04.703Z,150.18
2023-06-01T03:29:03.771Z,151.24
2023-06-01T03:30:04.775Z,148.71
2023-06-01T03:31:04.076Z,149.11
2023-06-01T03:32:03.875Z,149.71
2023-06-01T03:33:04.953Z,152.77
2023-06-01T03:34:03.944Z,151.01
2023-06-01T03:35:03.989Z,151.98
2023-06-01T03:36:04.043Z,151.03
2023-06-01T03:37:05.059Z,151.13
2023-06-01T03:38:05.109Z,152.76
2023-06-01T03:39:05.190Z,152.12
2023-06-01T03:40:05.188Z,152.38
2023-06-01T03:41:04.466Z,151.25
2023-06-01T03:42:04.273Z,148.79
2023-06-01T03:43:05.338Z,153.36
2023-06-01T03:44:05.374Z,150.20
2023-06-01T03:45:05.382Z,149.97
2023-06-01T03:46:05.451Z,151.64
2023-06-01T03:47:04.541Z,148.85
2023-06-01T03:48:05.559Z,151.20
2023-06-01T03:49:05.573Z,147.30
2023-06-01T03:50:04.624Z,150.52
2023-06-01T03:51:05.652Z,151.52
2023-06-01T03:52:05.712Z,148.53
2023-06-01T03:53:05.746Z,150.25
2023-06-01T03:54:04.825Z,149.19
2023-06-01T03:55:06.387Z,147.98
2023-06-01T03:56:05.872Z,146.34
2023-06-01T03:57:04.920Z,147.44
2023-06-01T03:58:04.968Z,145.77
2023-06-01T03:59:05.033Z,148.85
2023-06-01T04:00:06.083Z,147.60
2023-06-01T04:01:06.114Z,146.94
2023-06-01T04:02:06.284Z,145.77
2023-06-01T04:03:05.300Z,144.36
2023-06-01T04:04:05.335Z,142.69
2023-06-01T04:05:05.305Z,144.78
2023-06-01T04:06:06.354Z,144.01
2023-06-01T04:07:05.405Z,145.68
2023-06-01T04:08:06.456Z,144.60
2023-06-01T04:09:06.484Z,142.86
2023-06-01T04:10:05.530Z,145.99
2023-06-01T04:11:06.568Z,145.26
2023-06-01T04:12:06.622Z,144.44
2023-06-01T04:13:05.683Z,147.08
2023-06-01T04:14:05.723Z,146.11
2023-06-01T04:15:06.768Z,142.04
2023-06-01T04:16:05.835Z,143.55
2023-06-01T04:17:05.904Z,142.27
2023-06-01T04:18:06.949Z,143.83
2023-06-01T04:19:06.970Z,141.26
2023-06-01T04:20:05.989Z,141.86
2023-06-01T04:21:07.045Z,145.08
2023-06-01T04:22:07.204Z,142.58
2023-06-01T04:23:06.113Z,139.07
2023-06-01T04:24:07.186Z,139.57
2023-06-01T04:25:07.223Z,141.74
2023-06-01T04:26:06.260Z,138.11
2023-06-01T04:27:06.303Z,137.97
2023-06-01T04:28:07.355Z,140.18
2023-06-01T04:29:07.406Z,137.86
2023-06-01T04:30:06.465Z,140.51
2023-06-01T04:31:07.498Z,141.95
2023-06-01T04:32:06.728Z,140.19
2023-06-01T04:33:06.604Z,141.66
2023-06-01T04:34:07.640Z,136.53
2023-06-01T04:35:06.674Z,139.99
2023-06-01T04:36:06.721Z,139.52
2023-06-01T04:37:06.729Z,136.73
2023-06-01T04:38:06.769Z,138.54
2023-06-01T04:39:07.880Z,138.03
2023-06-01T04:40:07.863Z,136.10
2023-06-01T04:41:06.895Z,139.28
2023-06-01T04:42:07.937Z,135.22
2023-06-01T04:43:07.969Z,132.30
2023-06-01T04:44:08.044Z,137.47
2023-06-01T04:45:07.081Z,137.90
2023-06-01T04:46:07.143Z,134.25
2023-06-01T04:47:07.151Z,135.61
2023-06-01T04:48:08.223Z,136.16
2023-06-01T04:49:08.238Z,133.95
2023-06-01T04:50:08.305Z,138.12
2023-06-01T04:51:08.295Z,131.06
2023-06-01T04:52:08.358Z,135.12
2023-06-01T04:53:07.391Z,135.67
2023-06-01T04:54:08.460Z,136.32
2023-06-01T04:55:08.488Z,135.02
2023-06-01T04:56:07.504Z,132.52
2023-06-01T04:57:08.543Z,131.03
2023-06-01T04:58:08.606Z,133.42
2023-06-01T04:59:08.692Z,133.22
2023-06-01T05:00:08.654Z,135.56
2023-06-01T05:01:08.708Z,133.53
2023-06-01T05:02:07.755Z,130.09
2023-06-01T05:03:07.790Z,130.97
2023-06-01T05:04:07.852Z,131.56
2023-06-01T05:05:07.826Z,130.25
2023-06-01T05:06:09.009Z,131.61
2023-06-01T05:07:08.945Z,130.48
2023-06-01T05:08:08.990Z,132.16
2023-06-01T05:09:09.017Z,130.66
2023-06-01T05:10:09.020Z,133.70
2023-06-01T05:11:08.113Z,130.79
2023-06-01T05:12:09.089Z,129.87
2023-06-01T05:13:09.158Z,127.70
2023-06-01T05:14:09.165Z,129.64
2023-06-01T05:15:08.401Z,129.79
2023-06-01T05:16:08.390Z,130.86
2023-06-01T05:17:09.479Z,129.46
2023-06-01T05:18:08.498Z,131.01
2023-06-01T05:19:09.529Z,130.46
2023-06-01T05:20:08.399Z,130.75
2023-06-01T05:21:08.929Z,126.77
2023-06-01T05:22:09.487Z,133.00
2023-06-01T05:23:09.484Z,128.11
2023-06-01T05:24:08.573Z,128.76
2023-06-01T05:25:09.556Z,129.67
2023-06-01T05:26:09.616Z,128.26
2023-06-01T05:27:08.606Z,119.69
2023-06-01T05:28:09.654Z,105.85
2023-06-01T05:29:09.677Z,95.66
2023-06-01T05:30:08.751Z,99.07
2023-06-01T05:31:08.898Z,103.92
2023-06-01T05:32:08.847Z,105.29
2023-06-01T05:33:09.905Z,103.17
2023-06-01T05:34:09.920Z,113.80
2023-06-01T05:35:09.956Z,112.42
2023-06-01T05:36:09.113Z,119.49
2023-06-01T05:37:09.983Z,122.97
2023-06-01T05:38:09.984Z,126.66
2023-06-01T05:39:16.448Z,137.71
2023-06-01T05:40:08.966Z,138.40
2023-06-01T05:41:09.947Z,140.44
2023-06-01T05:42:09.955Z,143.93
2023-06-01T05:43:09.936Z,152.69
2023-06-01T05:44:09.921Z,168.94
2023-06-01T05:45:09.928Z,178.51
2023-06-01T05:46:09.934Z,176.21
2023-06-01T05:47:09.903Z,173.63
2023-06-01T05:48:09.986Z,133.93
2023-06-01T05:49:08.891Z,94.23
2023-06-01T05:50:09.883Z,69.29
2023-06-01T05:51:09.883Z,41.73
2023-06-01T05:52:09.869Z,25.23
2023-06-01T05:53:08.865Z,25.00
2023-06-01T05:54:08.856Z,24.11
2023-06-01T05:55:08.846Z,25.83
2023-06-01T05:56:08.847Z,26.94
2023-06-01T05:57:09.873Z,27.28
2023-06-01T05:58:08.823Z,29.95
2023-06-01T05:59:09.826Z,39.27
2023-06-01T06:00:09.822Z,47.75
2023-06-01T06:01:08.794Z,43.80
2023-06-01T06:02:09.854Z,53.16
2023-06-01T06:03:08.865Z,58.58
2023-06-01T06:04:08.906Z,73.14
2023-06-01T06:05:09.788Z,84.61
2023-06-01T06:06:09.765Z,96.48
2023-06-01T06:07:09.772Z,105.65
2023-06-01T06:08:09.749Z,107.29
2023-06-01T06:09:09.754Z,112.74
2023-06-01T06:10:09.750Z,114.62
2023-06-01T06:11:09.738Z,118.92
2023-06-01T06:12:08.752Z,122.71
2023-06-01T06:13:09.799Z,124.23
2023-06-01T06:14:09.851Z,129.64
2023-06-01T06:15:09.911Z,131.32
2023-06-01T06:16:08.967Z,131.78
2023-06-01T06:17:09.968Z,132.12
2023-06-01T06:18:10.094Z,134.77
2023-06-01T06:19:09.022Z,137.68
2023-06-01T06:20:10.074Z,136.94
2023-06-01T06:21:09.093Z,140.22
2023-06-01T06:22:09.172Z,145.62
2023-06-01T06:23:09.162Z,151.90
2023-06-01T06:24:10.235Z,150.54
2023-06-01T06:25:09.219Z,157.61
2023-06-01T06:26:10.251Z,166.75
2023-06-01T06:27:11.177Z,179.18
2023-06-01T06:28:10.259Z,186.78
2023-06-01T06:29:09.274Z,194.93
2023-06-01T06:30:09.265Z,198.50
2023-06-01T06:31:10.249Z,207.27
2023-06-01T06:32:10.309Z,207.89
2023-06-01T06:33:11.615Z,206.15
2023-06-01T06:34:09.235Z,206.46
2023-06-01T06:35:10.256Z,206.57
2023-06-01T06:36:10.215Z,203.57
2023-06-01T06:37:09.200Z,203.68
2023-06-01T06:38:09.218Z,204.78
2023-06-01T06:39:09.194Z,202.90
2023-06-01T06:40:10.252Z,208.83
2023-06-01T06:41:10.197Z,215.34
2023-06-01T06:42:09.187Z,223.09
2023-06-01T06:43:10.160Z,222.72
2023-06-01T06:44:10.164Z,226.21
2023-06-01T06:45:10.166Z,224.18
2023-06-01T06:46:10.146Z,222.48
2023-06-01T06:47:10.248Z,225.92
2023-06-01T06:48:10.163Z,225.22
2023-06-01T06:49:10.134Z,227.83
2023-06-01T06:50:09.108Z,229.31
2023-06-01T06:51:10.094Z,229.61
2023-06-01T06:52:10.095Z,228.17
2023-06-01T06:53:09.084Z,229.13
2023-06-01T06:54:10.087Z,230.48
2023-06-01T06:55:10.074Z,228.98
2023-06-01T06:56:09.078Z,227.61
2023-06-01T06:57:10.058Z,232.33
2023-06-01T06:58:10.066Z,235.03
2023-06-01T06:59:10.046Z,237.22
2023-06-01T07:00:10.483Z,237.35
2023-06-01T07:01:10.082Z,239.43
2023-06-01T07:02:10.066Z,245.60
2023-06-01T07:03:10.122Z,247.01
2023-06-01T07:04:09.089Z,248.77
2023-06-01T07:05:08.993Z,242.74
2023-06-01T07:06:08.987Z,245.72
2023-06-01T07:07:08.998Z,245.53
2023-06-01T07:08:09.999Z,244.37
2023-06-01T07:09:08.959Z,246.44
2023-06-01T07:10:09.945Z,244.60
2023-06-01T07:11:09.946Z,247.98
2023-06-01T07:12:09.970Z,249.84
2023-06-01T07:13:09.931Z,247.62
2023-06-01T07:14:09.917Z,247.50
2023-06-01T07:15:09.920Z,248.21
2023-06-01T07:16:08.899Z,248.25
2023-06-01T07:17:10.083Z,247.60
2023-06-01T07:18:09.922Z,249.78
2023-06-01T07:19:09.882Z,245.42
2023-06-01T07:20:09.871Z,246.70
2023-06-01T07:21:08.864Z,244.42
2023-06-01T07:22:09.848Z,242.70
2023-06-01T07:23:09.840Z,238.12
2023-06-01T07:24:09.831Z,237.15
2023-06-01T07:25:09.849Z,244.22
2023-06-01T07:26:09.852Z,245.46
2023-06-01T07:27:09.829Z,240.95
2023-06-01T07:28:08.823Z,236.23
2023-06-01T07:29:08.799Z,237.56
2023-06-01T07:30:09.787Z,236.54
2023-06-01T07:31:09.948Z,233.40
2023-06-01T07:32:09.856Z,232.66
2023-06-01T07:33:09.898Z,230.18
2023-06-01T07:34:08.751Z,231.69
2023-06-01T07:35:09.753Z,236.41
2023-06-01T07:36:08.742Z,236.92
2023-06-01T07:37:17.785Z,237.64
2023-06-01T07:38:09.716Z,237.94
2023-06-01T07:39:08.713Z,238.75
2023-06-01T07:40:09.713Z,238.96
2023-06-01T07:41:08.705Z,239.35
2023-06-01T07:42:09.693Z,242.63
2023-06-01T07:43:09.696Z,241.86
2023-06-01T07:44:09.688Z,246.07
2023-06-01T07:45:09.684Z,250.00
2023-06-01T07:46:08.712Z,249.25
2023-06-01T07:47:09.659Z,245.88
2023-06-01T07:48:11.174Z,245.45
2023-06-01T07:49:08.658Z,246.33
2023-06-01T07:50:09.653Z,245.26
2023-06-01T07:51:09.660Z,242.97
2023-06-01T07:52:09.617Z,243.39
2023-06-01T07:53:09.612Z,240.79
2023-06-01T07:54:09.614Z,240.48
2023-06-01T07:55:09.620Z,199.81
2023-06-01T07:56:09.626Z,177.74
2023-06-01T07:57:09.590Z,187.86
2023-06-01T07:58:09.568Z,174.23
2023-06-01T07:59:09.646Z,108.66
2023-06-01T08:00:09.557Z,105.19
2023-06-01T08:01:09.556Z,117.64
2023-06-01T08:02:09.603Z,127.40
2023-06-01T08:03:09.672Z,118.86
2023-06-01T08:04:08.543Z,127.70
2023-06-01T08:05:09.571Z,134.12
2023-06-01T08:06:08.614Z,147.44
2023-06-01T08:07:09.537Z,149.72
2023-06-01T08:08:08.489Z,154.29
2023-06-01T08:09:08.493Z,148.41
2023-06-01T08:10:09.497Z,160.13
2023-06-01T08:11:09.475Z,165.44
2023-06-01T08:12:09.483Z,161.29
2023-06-01T08:13:09.681Z,171.04
2023-06-01T08:14:08.553Z,174.35
2023-06-01T08:15:09.468Z,173.03
2023-06-01T08:16:09.458Z,175.08
2023-06-01T08:17:09.464Z,176.12
2023-06-01T08:18:09.495Z,174.67
2023-06-01T08:19:08.436Z,175.87
2023-06-01T08:20:09.453Z,174.14
2023-06-01T08:21:09.418Z,176.71
2023-06-01T08:22:09.503Z,182.34
2023-06-01T08:23:09.411Z,183.08
2023-06-01T08:24:09.399Z,185.70
2023-06-01T08:25:08.398Z,184.69
2023-06-01T08:26:09.369Z,183.39
2023-06-01T08:27:09.379Z,185.02
2023-06-01T08:28:09.379Z,182.15
2023-06-01T08:29:09.412Z,178.59
2023-06-01T08:30:08.358Z,170.97
2023-06-01T08:31:08.389Z,177.60
2023-06-01T08:32:08.380Z,171.07
2023-06-01T08:33:09.379Z,156.26
2023-06-01T08:34:09.334Z,164.98
2023-06-01T08:35:09.331Z,168.09
2023-06-01T08:36:08.342Z,154.40
2023-06-01T08:37:08.354Z,84.35
2023-06-01T08:38:09.362Z,61.01
2023-06-01T08:39:09.355Z,60.65
2023-06-01T08:40:08.366Z,34.41
2023-06-01T08:41:08.368Z,24.00
2023-06-01T08:42:10.293Z,25.00
2023-06-01T08:43:09.380Z,42.04
2023-06-01T08:44:08.374Z,44.91
2023-06-01T08:45:08.532Z,49.07
2023-06-01T08:46:09.370Z,56.04
2023-06-01T08:47:08.470Z,50.12
2023-06-01T08:48:09.359Z,51.08
2023-06-01T08:49:09.339Z,48.19
2023-06-01T08:50:09.330Z,36.15
2023-06-01T08:51:08.317Z,47.60
2023-06-01T08:52:09.305Z,58.40
2023-06-01T08:53:09.307Z,60.77
2023-06-01T08:54:09.307Z,36.40
2023-06-01T08:55:09.297Z,8.95
2023-06-01T08:56:09.288Z,22.92
2023-06-01T08:57:09.487Z,26.80
2023-06-01T08:58:09.273Z,39.97
2023-06-01T08:59:08.258Z,31.03
2023-06-01T09:00:09.255Z,26.77
2023-06-01T09:01:09.319Z,23.03
2023-06-01T09:02:08.248Z,24.32
2023-06-01T09:03:08.376Z,23.45
2023-06-01T09:04:08.337Z,25.02
2023-06-01T09:05:09.220Z,26.44
2023-06-01T09:06:09.214Z,26.77
2023-06-01T09:07:09.229Z,24.69
2023-06-01T09:08:09.190Z,26.04
2023-06-01T09:09:09.272Z,26.53
2023-06-01T09:10:08.447Z,25.47
2023-06-01T09:11:08.166Z,25.00
2023-06-01T09:12:09.167Z,22.51
2023-06-01T09:13:09.174Z,25.32
2023-06-01T09:14:09.141Z,25.00
2023-06-01T09:15:09.141Z,25.00
2023-06-01T09:16:09.135Z,25.78
2023-06-01T09:17:09.159Z,29.11
2023-06-01T09:18:09.238Z,30.01
2023-06-01T09:19:09.340Z,26.75
2023-06-01T09:20:08.125Z,27.44
2023-06-01T09:21:08.092Z,25.34
2023-06-01T09:22:09.151Z,25.02
2023-06-01T09:23:09.091Z,25.38
2023-06-01T09:24:08.072Z,25.00
2023-06-01T09:25:09.119Z,25.87
2023-06-01T09:26:08.065Z,25.01
2023-06-01T09:27:09.066Z,25.95
2023-06-01T09:28:09.057Z,40.46
2023-06-01T09:29:08.039Z,46.84
2023-06-01T09:30:08.030Z,45.73
2023-06-01T09:31:08.084Z,41.12
2023-06-01T09:32:09.017Z,43.71
2023-06-01T09:33:09.046Z,62.08
2023-06-01T09:34:09.016Z,70.27
2023-06-01T09:35:09.038Z,78.43
2023-06-01T09:36:09.000Z,87.01
2023-06-01T09:37:09.005Z,95.27
2023-06-01T09:38:08.989Z,105.98
2023-06-01T09:39:09.012Z,108.79
2023-06-01T09:40:08.975Z,118.08
2023-06-01T09:41:08.952Z,119.88
2023-06-01T09:42:08.952Z,117.67
2023-06-01T09:43:07.933Z,122.85
2023-06-01T09:44:07.926Z,118.69
2023-06-01T09:45:07.924Z,120.03
2023-06-01T09:46:07.925Z,113.96
2023-06-01T09:47:08.943Z,78.24
2023-06-01T09:48:08.984Z,62.77
2023-06-01T09:49:07.887Z,57.37
2023-06-01T09:50:08.888Z,55.90
2023-06-01T09:51:08.057Z,54.84
2023-06-01T09:52:07.870Z,46.83
2023-06-01T09:53:08.854Z,45.15
2023-06-01T09:54:08.850Z,51.46
2023-06-01T09:55:08.830Z,55.28
2023-06-01T09:56:08.834Z,57.18
2023-06-01T09:57:12.009Z,55.76
2023-06-01T09:58:08.830Z,55.78
2023-06-01T09:59:08.826Z,54.87
2023-06-01T10:00:08.819Z,57.48
2023-06-01T10:01:08.819Z,61.04
2023-06-01T10:02:08.940Z,64.12
2023-06-01T10:03:07.893Z,68.61
2023-06-01T10:04:08.829Z,77.23
2023-06-01T10:05:08.782Z,82.79
2023-06-01T10:06:08.772Z,80.14
2023-06-01T10:07:08.768Z,70.11
2023-06-01T10:08:07.777Z,76.21
2023-06-01T10:09:07.758Z,80.43
2023-06-01T10:10:07.746Z,85.62
2023-06-01T10:11:08.811Z,87.07
2023-06-01T10:12:07.733Z,88.58
2023-06-01T10:13:07.715Z,90.25
2023-06-01T10:14:08.722Z,91.01
2023-06-01T10:15:20.372Z,93.61
2023-06-01T10:16:08.753Z,93.74
2023-06-01T10:17:07.705Z,94.39
2023-06-01T10:18:08.737Z,95.70
2023-06-01T10:19:08.669Z,102.72
2023-06-01T10:20:07.659Z,105.16
2023-06-01T10:21:08.684Z,104.41
2023-06-01T10:22:08.744Z,104.18
2023-06-01T10:23:13.725Z,113.29
2023-06-01T10:24:08.645Z,113.37
2023-06-01T10:25:07.634Z,113.38
2023-06-01T10:26:08.641Z,113.55
2023-06-01T10:27:08.638Z,115.20
2023-06-01T10:28:07.627Z,110.10
2023-06-01T10:29:08.634Z,106.78
2023-06-01T10:30:07.590Z,105.09
2023-06-01T10:31:08.617Z,107.60
2023-06-01T10:32:08.731Z,106.83
2023-06-01T10:33:08.631Z,103.28
2023-06-01T10:34:10.674Z,98.40
2023-06-01T10:35:08.577Z,98.40
2023-06-01T10:36:08.558Z,99.70
2023-06-01T10:37:08.549Z,105.62
2023-06-01T10:38:08.601Z,110.91
2023-06-01T10:39:07.522Z,110.88
2023-06-01T10:40:08.521Z,107.41
2023-06-01T10:41:08.533Z,106.70
2023-06-01T10:42:08.521Z,109.26
2023-06-01T10:43:07.486Z,109.11
2023-06-01T10:44:08.500Z,104.53
2023-06-01T10:45:08.518Z,100.70
2023-06-01T10:46:07.598Z,98.91
2023-06-01T10:47:07.506Z,101.04
2023-06-01T10:48:07.502Z,103.20
2023-06-01T10:49:07.458Z,104.54
2023-06-01T10:50:07.446Z,102.24
2023-06-01T10:51:08.451Z,103.93
2023-06-01T10:52:08.435Z,100.56
2023-06-01T10:53:08.442Z,96.64
2023-06-01T10:54:08.414Z,87.65
2023-06-01T10:55:08.437Z,96.68
2023-06-01T10:56:08.403Z,101.95
2023-06-01T10:57:08.392Z,103.34
2023-06-01T10:58:08.394Z,97.57
2023-06-01T10:59:17.374Z,97.31
2023-06-01T11:00:08.390Z,97.52
2023-06-01T11:01:08.373Z,98.62
2023-06-01T11:02:08.439Z,101.44
2023-06-01T11:03:07.452Z,107.59
2023-06-01T11:04:08.386Z,108.70
2023-06-01T11:05:08.398Z,111.84
2023-06-01T11:06:09.567Z,111.20
2023-06-01T11:07:08.322Z,112.64
2023-06-01T11:08:08.305Z,110.53
2023-06-01T11:09:07.323Z,116.20
2023-06-01T11:10:08.313Z,117.23
2023-06-01T11:11:08.308Z,115.57
2023-06-01T11:12:08.395Z,121.63
2023-06-01T11:13:08.284Z,123.75
2023-06-01T11:14:08.305Z,121.72
2023-06-01T11:15:08.340Z,119.55
2023-06-01T11:16:10.368Z,119.66
2023-06-01T11:17:08.260Z,119.97
2023-06-01T11:18:07.312Z,117.75
2023-06-01T11:19:07.234Z,112.70
2023-06-01T11:20:08.271Z,110.42
2023-06-01T11:21:07.222Z,90.67
2023-06-01T11:22:08.348Z,73.44
2023-06-01T11:23:07.204Z,63.40
2023-06-01T11:24:07.197Z,51.12
2023-06-01T11:25:08.191Z,45.54
2023-06-01T11:26:07.173Z,41.15
2023-06-01T11:27:07.173Z,38.06
2023-06-01T11:28:08.164Z,36.78
2023-06-01T11:29:07.165Z,35.48
2023-06-01T11:30:08.166Z,35.21
2023-06-01T11:31:07.132Z,32.66
2023-06-01T11:32:08.203Z,30.32
2023-06-01T11:33:08.208Z,33.74
2023-06-01T11:34:08.130Z,33.23
2023-06-01T11:35:07.110Z,32.88
2023-06-01T11:36:08.110Z,35.09
2023-06-01T11:37:07.103Z,37.01
2023-06-01T11:38:07.077Z,32.59
2023-06-01T11:39:19.779Z,28.27
2023-06-01T11:40:08.069Z,28.30
2023-06-01T11:41:07.070Z,29.13
2023-06-01T11:42:08.081Z,31.12
2023-06-01T11:43:08.047Z,30.62
2023-06-01T11:44:08.049Z,31.83
2023-06-01T11:45:08.039Z,29.98
2023-06-01T11:46:21.238Z,27.45
2023-06-01T11:47:08.063Z,27.65
2023-06-01T11:48:07.048Z,28.12
2023-06-01T11:49:08.024Z,28.92
2023-06-01T11:50:07.999Z,30.11
2023-06-01T11:51:06.977Z,33.53
2023-06-01T11:52:07.972Z,35.23
2023-06-01T11:53:06.968Z,37.11
2023-06-01T11:54:07.975Z,43.84
2023-06-01T11:55:07.980Z,44.27
2023-06-01T11:56:07.957Z,48.41
2023-06-01T11:57:06.957Z,54.57
2023-06-01T11:58:07.950Z,59.69
2023-06-01T11:59:06.934Z,65.06
2023-06-01T12:00:06.914Z,68.69
2023-06-01T12:01:07.922Z,69.82
2023-06-01T12:02:06.952Z,73.00
2023-06-01T12:03:08.075Z,78.25
2023-06-01T12:04:07.994Z,83.10
2023-06-01T12:05:06.880Z,90.38
2023-06-01T12:06:07.871Z,94.58
2023-06-01T12:07:07.123Z,99.32
2023-06-01T12:08:07.859Z,104.83
2023-06-01T12:09:06.839Z,110.19
2023-06-01T12:10:07.851Z,112.35
2023-06-01T12:11:06.837Z,117.92
2023-06-01T12:12:06.825Z,122.38
2023-06-01T12:13:06.813Z,126.58
2023-06-01T12:14:07.829Z,129.28
2023-06-01T12:15:07.796Z,132.00
2023-06-01T12:16:21.205Z,135.86
2023-06-01T12:17:07.870Z,136.05
2023-06-01T12:18:06.943Z,137.46
2023-06-01T12:19:06.794Z,140.46
2023-06-01T12:20:06.759Z,144.17
2023-06-01T12:21:07.744Z,152.03
2023-06-01T12:22:07.842Z,153.38
2023-06-01T12:23:07.738Z,155.49
2023-06-01T12:24:07.749Z,158.76
2023-06-01T12:25:07.754Z,159.74
2023-06-01T12:26:06.724Z,162.68
2023-06-01T12:27:06.720Z,166.33
2023-06-01T12:28:07.756Z,168.07
2023-06-01T12:29:07.685Z,169.64
2023-06-01T12:30:06.680Z,171.44
2023-06-01T12:31:06.697Z,174.15
2023-06-01T12:32:07.675Z,174.50
2023-06-01T12:33:06.706Z,176.21
2023-06-01T12:34:06.652Z,177.47